La Mesilla, New Mexico
Current Conditions -  °F | °C
As of 4:15 PM on Thursday 27 Nov 2014 (Local Time) from KLAM Reporting Station
Clear Clear  
Wind Chill: 54°   Ceiling: Unl
Heat Index: 54°   Visibility: 10mi
Dew Point: 21°   Wind: 3mph
Humidity: 27%   Direction: 150°SSE
Pressure: 30.39"   Gusts: NA
Location:  35.9775°N, 106.158°W
Report Text: KLAM 272315Z AUTO 15003KT 10SM CLR 12/M06 A3039 RMK AO2 T01241062
Loading
Personal Weather Stations






























Interactive Weather Map New forecast layout! Learn more

10-Day Weather Forecast

Advertisements
Track Severe Weather on mobile